KSUA/SUA METAR and TAF weather

Enter ICAO airport designator
Station Type Date Time Source
KSUA METAR 2020/03/28 13:47 UTC NOAA

KSUA 281347Z 14008KT 6SM HZ FEW020 25/18 A3012


Station Type Date Time Source
KSUA Decoded METAR 2020/03/28 13:47 UTC NOAA

Stuart, Witham Field Airport, FL, United States (KSUA) 27-10-54N 080-13-16W
Mar 28, 2020 - 09:47 AM EDT / 2020.03.28 1347 UTC
Wind: from the SE (140 degrees) at 9 MPH (8 KT):0
Visibility: 6 mile(s):0
Sky conditions: mostly clear
Weather: haze
Temperature: 77 F (25 C)
Dew Point: 64 F (18 C)
Relative Humidity: 65%
Pressure (altimeter): 30.12 in. Hg (1019 hPa)
ob: KSUA 281347Z 14008KT 6SM HZ FEW020 25/18 A3012
cycle: 14

Station Type Date Time Source
KSUA TAF 2020/03/28 12:36 UTC NOAA

TAF KSUA 281135Z 2812/2912 14005KT P6SM FEW350
FM281500 14013KT P6SM FEW300
FM290100 15004KT P6SM SKC

Example: see airport list